createdAt,value
2022-08-29T00:01:46.278Z,100504.75
2022-08-29T00:06:48.303Z,100502.16
2022-08-29T00:11:48.969Z,100501.44
2022-08-29T00:16:49.810Z,100509.97
2022-08-29T00:21:51.901Z,100504.94
2022-08-29T00:26:52.587Z,100513.44
2022-08-29T00:31:53.396Z,100510.25
2022-08-29T00:36:55.508Z,100517.22
2022-08-29T00:41:56.309Z,100521.63
2022-08-29T00:46:59.872Z,100516.72
2022-08-29T00:52:09.688Z,100517.59
2022-08-29T00:57:10.731Z,100517.75
2022-08-29T01:02:12.109Z,100524.72
2022-08-29T01:07:14.270Z,100525.34
2022-08-29T01:12:19.393Z,100524.59
2022-08-29T01:17:24.015Z,100523.47
2022-08-29T01:22:49.011Z,100527.59
2022-08-29T01:27:55.912Z,100529.09
2022-08-29T01:32:57.612Z,100530.66
2022-08-29T01:37:58.310Z,100534.75
2022-08-29T01:43:00.377Z,100530.72
2022-08-29T01:48:03.567Z,100535.94
2022-08-29T01:53:04.444Z,100535.34
2022-08-29T01:58:07.443Z,100537.53
2022-08-29T02:03:09.138Z,100542.84
2022-08-29T02:08:09.853Z,100542.16
2022-08-29T02:13:13.710Z,100544.22
2022-08-29T02:18:14.470Z,100544.47
2022-08-29T02:23:30.241Z,100541.94
2022-08-29T02:28:34.584Z,100540.09
2022-08-29T02:33:36.061Z,100543.75
2022-08-29T02:38:38.356Z,100540.69
2022-08-29T02:43:40.377Z,100545.84
2022-08-29T02:48:41.225Z,100546.06
2022-08-29T02:53:48.345Z,100553.75
2022-08-29T02:58:50.890Z,100552.25
2022-08-29T03:03:52.592Z,100553.19
2022-08-29T03:08:54.180Z,100555.91
2022-08-29T03:13:57.734Z,100556.84
2022-08-29T03:18:58.774Z,100560.22
2022-08-29T03:23:59.488Z,100557.69
2022-08-29T03:29:01.561Z,100554.25
2022-08-29T03:34:02.418Z,100548.44
2022-08-29T03:39:03.479Z,100552.00
2022-08-29T03:44:05.703Z,100558.03
2022-08-29T03:49:07.274Z,100558.81
2022-08-29T03:54:08.594Z,100558.97
2022-08-29T03:59:11.425Z,100570.13
2022-08-29T04:04:32.346Z,100575.47
2022-08-29T04:09:33.593Z,100573.88
2022-08-29T04:14:35.980Z,100579.06
2022-08-29T04:19:37.145Z,100585.13
2022-08-29T04:24:37.836Z,100579.97
2022-08-29T04:29:39.849Z,100581.72
2022-08-29T04:34:40.514Z,100582.59
2022-08-29T04:39:41.742Z,100586.97
2022-08-29T04:44:43.842Z,100594.50
2022-08-29T04:49:44.663Z,100592.75
2022-08-29T04:54:45.345Z,100595.19
2022-08-29T04:59:47.544Z,100607.13
2022-08-29T05:04:52.890Z,100613.97
2022-08-29T05:09:59.362Z,100624.09
2022-08-29T05:15:01.412Z,100623.94
2022-08-29T05:20:03.585Z,100617.75
2022-08-29T05:25:05.484Z,100621.91
2022-08-29T05:30:10.018Z,100626.00
2022-08-29T05:35:11.474Z,100618.09
2022-08-29T05:40:12.597Z,100627.31
2022-08-29T05:45:14.740Z,100629.91
2022-08-29T05:50:17.048Z,100619.22
2022-08-29T05:55:18.973Z,100627.03
2022-08-29T06:00:21.472Z,100628.22
2022-08-29T06:05:22.140Z,100631.56
2022-08-29T06:10:22.984Z,100635.47
2022-08-29T06:15:28.506Z,100638.59
2022-08-29T06:20:29.321Z,100646.00
2022-08-29T06:25:39.310Z,100643.34
2022-08-29T06:30:43.202Z,100648.03
2022-08-29T06:35:43.920Z,100648.66
2022-08-29T06:40:44.663Z,100655.81
2022-08-29T06:45:46.751Z,100657.91
2022-08-29T06:50:47.513Z,100666.03
2022-08-29T06:55:48.676Z,100664.97
2022-08-29T07:00:54.039Z,100677.47
2022-08-29T07:05:55.167Z,100679.84
2022-08-29T07:10:55.849Z,100678.66
2022-08-29T07:15:58.419Z,100677.63
2022-08-29T07:20:59.149Z,100681.88
2022-08-29T07:26:07.848Z,100685.53
2022-08-29T07:31:10.567Z,100677.50
2022-08-29T07:36:11.727Z,100669.66
2022-08-29T07:41:14.784Z,100668.75
2022-08-29T07:46:19.133Z,100682.81
2022-08-29T07:51:23.033Z,100686.75
2022-08-29T07:56:25.751Z,100679.78
2022-08-29T08:01:28.283Z,100670.69
2022-08-29T08:06:29.262Z,100671.41
2022-08-29T08:11:32.043Z,100668.50
2022-08-29T08:16:34.638Z,100666.53
2022-08-29T08:21:35.861Z,100671.81
2022-08-29T08:26:36.778Z,100678.91
2022-08-29T08:31:43.805Z,100686.88
2022-08-29T08:36:45.410Z,100690.38
2022-08-29T08:41:53.375Z,100685.19
2022-08-29T08:46:59.589Z,100692.03
2022-08-29T08:52:12.516Z,100688.47
2022-08-29T08:57:14.642Z,100687.41
2022-08-29T09:02:27.584Z,100687.78
2022-08-29T09:07:47.276Z,100691.28
2022-08-29T09:12:59.703Z,100689.56
2022-08-29T09:18:06.202Z,100700.88
2022-08-29T09:23:12.585Z,100696.06
2022-08-29T09:28:13.468Z,100695.44
2022-08-29T09:33:19.085Z,100689.94
2022-08-29T09:38:23.784Z,100691.94
2022-08-29T09:43:45.365Z,100694.06
2022-08-29T09:48:49.718Z,100699.69
2022-08-29T09:53:50.851Z,100681.72
2022-08-29T09:59:01.661Z,100692.19
2022-08-29T10:04:06.516Z,100690.84
2022-08-29T10:09:10.696Z,100688.44
2022-08-29T10:14:16.565Z,100676.56
2022-08-29T10:19:22.209Z,100680.22
2022-08-29T10:24:36.141Z,100671.50
2022-08-29T10:29:53.334Z,100675.03
2022-08-29T10:35:04.508Z,100671.84
2022-08-29T10:40:09.931Z,100677.44
2022-08-29T10:45:17.784Z,100690.47
2022-08-29T10:50:45.686Z,100685.00
2022-08-29T10:55:53.566Z,100674.31
2022-08-29T11:00:58.386Z,100675.50
2022-08-29T11:06:04.374Z,100671.06
2022-08-29T11:11:05.093Z,100684.06
2022-08-29T11:16:14.260Z,100666.59
2022-08-29T11:21:28.558Z,100658.22
2022-08-29T11:26:42.222Z,100673.06
2022-08-29T11:31:51.366Z,100667.31
2022-08-29T11:37:15.744Z,100660.06
2022-08-29T11:42:49.756Z,100653.03
2022-08-29T11:47:59.378Z,100654.56
2022-08-29T11:53:09.289Z,100653.00
2022-08-29T11:58:42.945Z,100653.25
2022-08-29T12:03:47.500Z,100647.78
2022-08-29T12:08:56.383Z,100660.38
2022-08-29T12:14:04.705Z,100655.09
2022-08-29T12:19:05.636Z,100651.94
2022-08-29T12:24:27.121Z,100646.84
2022-08-29T12:29:33.306Z,100642.72
2022-08-29T12:34:53.491Z,100637.47
2022-08-29T12:40:15.299Z,100636.25
2022-08-29T12:45:20.293Z,100630.25
2022-08-29T12:50:25.002Z,100622.63
2022-08-29T12:55:29.910Z,100623.97
2022-08-29T13:00:33.532Z,100618.44
2022-08-29T13:05:36.655Z,100622.84
2022-08-29T13:10:40.950Z,100611.97
2022-08-29T13:15:42.148Z,100612.84
2022-08-29T13:20:49.827Z,100604.81
2022-08-29T13:25:55.343Z,100590.28
2022-08-29T13:31:31.344Z,100599.06
2022-08-29T13:36:38.269Z,100603.34
2022-08-29T13:41:40.950Z,100584.97
2022-08-29T13:52:17.870Z,100586.38
2022-08-29T13:57:22.196Z,100586.28
2022-08-29T14:02:23.099Z,100578.38
2022-08-29T14:07:27.385Z,100581.81
2022-08-29T14:12:33.128Z,100584.44
2022-08-29T14:17:34.542Z,100576.16
2022-08-29T14:22:35.341Z,100578.31
2022-08-29T14:27:38.016Z,100576.22
2022-08-29T14:32:39.770Z,100573.69
2022-08-29T14:37:40.720Z,100570.66
2022-08-29T14:42:42.736Z,100564.13
2022-08-29T14:47:46.312Z,100565.13
2022-08-29T14:52:47.413Z,100565.16
2022-08-29T14:57:49.788Z,100554.84
2022-08-29T15:02:51.342Z,100550.38
2022-08-29T15:07:52.111Z,100549.72
2022-08-29T15:12:54.510Z,100536.88
2022-08-29T15:17:55.280Z,100536.19
2022-08-29T15:22:56.134Z,100536.56
2022-08-29T15:27:58.225Z,100533.94
2022-08-29T15:32:59.353Z,100522.66
2022-08-29T15:38:00.186Z,100532.34
2022-08-29T15:43:02.678Z,100537.56
2022-08-29T15:48:06.155Z,100539.44
2022-08-29T15:53:12.522Z,100528.06
2022-08-29T15:58:14.773Z,100524.50
2022-08-29T16:03:15.527Z,100524.31
2022-08-29T16:08:17.703Z,100528.63
2022-08-29T16:13:21.037Z,100519.34
2022-08-29T16:18:22.956Z,100514.97
2022-08-29T16:23:24.835Z,100501.13
2022-08-29T16:28:28.804Z,100506.25
2022-08-29T16:33:29.531Z,100501.13
2022-08-29T16:38:30.504Z,100492.69
2022-08-29T16:43:32.620Z,100495.28
2022-08-29T16:48:33.488Z,100500.72
2022-08-29T16:53:39.278Z,100498.44
2022-08-29T16:59:00.329Z,100502.81
2022-08-29T17:04:02.608Z,100513.38
2022-08-29T17:09:06.514Z,100521.50
2022-08-29T17:14:10.670Z,100514.88
2022-08-29T17:19:11.484Z,100515.16
2022-08-29T17:24:13.201Z,100508.47
2022-08-29T17:29:16.825Z,100514.94
2022-08-29T17:34:19.739Z,100521.19
2022-08-29T17:39:21.520Z,100517.72
2022-08-29T17:44:24.255Z,100525.06
2022-08-29T17:49:25.709Z,100528.25
2022-08-29T17:54:28.422Z,100521.41
2022-08-29T17:59:35.399Z,100525.09
2022-08-29T18:04:36.823Z,100532.78
2022-08-29T18:09:37.566Z,100533.31
2022-08-29T18:14:39.674Z,100541.94
2022-08-29T18:19:41.103Z,100544.13
2022-08-29T18:24:41.811Z,100549.78
2022-08-29T18:29:45.319Z,100560.84
2022-08-29T18:34:46.216Z,100559.78
2022-08-29T18:39:47.055Z,100563.84
2022-08-29T18:44:49.016Z,100563.38
2022-08-29T18:50:07.337Z,100557.59
2022-08-29T18:55:08.829Z,100572.06
2022-08-29T19:00:18.979Z,100577.72
2022-08-29T19:05:24.376Z,100578.00
2022-08-29T19:10:26.918Z,100587.00
2022-08-29T19:15:30.153Z,100585.44
2022-08-29T19:20:49.091Z,100589.38
2022-08-29T19:25:50.051Z,100592.41
2022-08-29T19:30:52.923Z,100593.59
2022-08-29T19:35:53.802Z,100600.22
2022-08-29T19:40:57.214Z,100601.84
2022-08-29T19:46:00.242Z,100597.00
2022-08-29T19:51:01.458Z,100599.22
2022-08-29T19:56:02.112Z,100600.13
2022-08-29T20:01:07.207Z,100596.00
2022-08-29T20:06:09.181Z,100598.69
2022-08-29T20:11:12.628Z,100606.53
2022-08-29T20:16:16.851Z,100602.56
2022-08-29T20:21:20.035Z,100604.72
2022-08-29T20:26:22.748Z,100614.84
2022-08-29T20:31:25.098Z,100605.63
2022-08-29T20:36:44.166Z,100612.53
2022-08-29T20:41:49.377Z,100619.06
2022-08-29T20:46:52.160Z,100618.34
2022-08-29T20:51:53.173Z,100629.97
2022-08-29T20:56:54.612Z,100631.31
2022-08-29T21:01:57.243Z,100638.59
2022-08-29T21:06:59.558Z,100635.28
2022-08-29T21:12:08.281Z,100637.50
2022-08-29T21:17:12.397Z,100642.75
2022-08-29T21:22:15.138Z,100648.06
2022-08-29T21:27:16.151Z,100644.72
2022-08-29T21:32:22.328Z,100654.81
2022-08-29T21:37:23.060Z,100663.50
2022-08-29T21:42:23.701Z,100667.97
2022-08-29T21:47:25.693Z,100652.50
2022-08-29T21:52:26.401Z,100653.44
2022-08-29T21:57:45.860Z,100659.88
2022-08-29T22:02:48.653Z,100661.97
2022-08-29T22:07:49.542Z,100660.19
2022-08-29T22:12:50.324Z,100663.69
2022-08-29T22:17:52.378Z,100667.06
2022-08-29T22:22:53.343Z,100663.25
2022-08-29T22:27:53.974Z,100660.06
2022-08-29T22:32:56.157Z,100653.28
2022-08-29T22:37:59.065Z,100664.16
2022-08-29T22:42:59.746Z,100659.19
2022-08-29T22:48:01.778Z,100652.78
2022-08-29T22:53:02.788Z,100658.59
2022-08-29T22:58:07.156Z,100669.44
2022-08-29T23:03:09.209Z,100674.50
2022-08-29T23:08:09.928Z,100662.13
2022-08-29T23:13:11.149Z,100664.94
2022-08-29T23:18:13.110Z,100661.69
2022-08-29T23:23:14.211Z,100660.06
2022-08-29T23:28:14.802Z,100662.75
2022-08-29T23:33:17.734Z,100661.06
2022-08-29T23:38:18.899Z,100661.41
2022-08-29T23:43:20.962Z,100665.19
2022-08-29T23:48:25.883Z,100645.38
2022-08-29T23:53:27.050Z,100649.13
2022-08-29T23:58:27.960Z,100649.97
